Time;durP1;ratioP1;P1;durP2;ratioP2;P2;SDS_P1;SDS_P2;PMS_P1;PMS_P2;Temp;Humidity;BMP_temperature;BMP_pressure;BME280_temperature;BME280_humidity;BME280_pressure;Samples;Min_cycle;Max_cycle;Signal;HPM_P1;HPM_P2
2022/06/01 00:00:58;;;;;;;12.20;11.00;;;14.90;94.30;;;;;;5074243;28;20082;-77
2022/06/01 00:03:24;;;;;;;12.05;10.85;;;14.90;94.40;;;;;;5074141;28;20024;-77
2022/06/01 00:05:53;;;;;;;11.90;10.73;;;14.90;94.40;;;;;;5074001;28;20028;-77
2022/06/01 00:08:22;;;;;;;12.52;11.25;;;15.00;94.50;;;;;;5074272;28;20021;-77
2022/06/01 00:10:49;;;;;;;14.50;12.02;;;15.00;94.50;;;;;;5073643;28;20103;-77
2022/06/01 00:13:15;;;;;;;12.73;11.52;;;15.00;94.40;;;;;;5074080;28;20024;-77
2022/06/01 00:15:40;;;;;;;12.88;11.68;;;15.00;94.40;;;;;;5074109;28;20032;-77
2022/06/01 00:18:06;;;;;;;13.30;11.93;;;15.10;94.50;;;;;;5074008;28;20055;-77
2022/06/01 00:20:32;;;;;;;14.80;12.77;;;15.10;94.40;;;;;;5073759;28;20024;-77
2022/06/01 00:22:58;;;;;;;15.65;14.02;;;15.10;94.50;;;;;;5073553;28;20028;-77
2022/06/01 00:25:24;;;;;;;15.57;13.95;;;15.00;94.50;;;;;;5073355;28;20024;-77
2022/06/01 00:27:50;;;;;;;15.13;13.48;;;14.90;94.60;;;;;;5073214;28;20431;-77
2022/06/01 00:30:17;;;;;;;15.35;13.82;;;14.80;94.80;;;;;;5073609;28;20059;-77
2022/06/01 00:32:43;;;;;;;14.60;13.13;;;14.70;94.90;;;;;;5073406;28;20028;-77
2022/06/01 00:35:12;;;;;;;15.18;13.75;;;14.70;94.90;;;;;;5073725;28;20032;-77
2022/06/01 00:37:38;;;;;;;14.93;13.43;;;14.60;95.00;;;;;;5073796;28;20427;-77
2022/06/01 00:40:06;;;;;;;16.27;14.65;;;14.50;95.00;;;;;;5073475;28;20025;-77
2022/06/01 00:42:34;;;;;;;16.30;14.65;;;14.50;95.30;;;;;;5073421;28;20029;-77
2022/06/01 00:45:00;;;;;;;16.95;15.35;;;14.40;95.20;;;;;;5073340;28;20086;-77
2022/06/01 00:47:27;;;;;;;17.10;15.40;;;14.40;95.50;;;;;;5073014;28;20072;-77
2022/06/01 00:50:08;;;;;;;18.33;16.42;;;14.30;95.60;;;;;;5073306;28;20094;-77
2022/06/01 00:52:37;;;;;;;18.25;16.42;;;14.20;95.90;;;;;;5073553;28;20103;-77
2022/06/01 00:55:05;;;;;;;18.27;16.58;;;14.10;96.00;;;;;;5073242;28;20035;-78
2022/06/01 00:57:31;;;;;;;17.55;15.82;;;14.00;96.30;;;;;;5073354;28;20090;-77
2022/06/01 00:59:57;;;;;;;18.65;16.85;;;13.90;96.50;;;;;;5073270;28;20475;-77
2022/06/01 01:02:23;;;;;;;18.15;16.42;;;13.90;96.60;;;;;;5073099;28;20028;-77
2022/06/01 01:04:49;;;;;;;19.38;17.30;;;14.00;96.70;;;;;;5073569;28;20033;-78
2022/06/01 01:07:15;;;;;;;18.23;16.02;;;13.90;96.60;;;;;;5073275;28;20031;-77
2022/06/01 01:09:41;;;;;;;19.02;17.13;;;14.00;96.60;;;;;;5073064;28;20036;-77
2022/06/01 01:12:10;;;;;;;19.00;17.10;;;13.90;96.60;;;;;;5073431;28;20024;-77
2022/06/01 01:14:41;;;;;;;18.75;16.83;;;13.90;96.90;;;;;;5073392;28;20444;-77
2022/06/01 01:17:07;;;;;;;19.15;17.13;;;13.80;97.20;;;;;;5073118;28;20490;-78
2022/06/01 01:19:34;;;;;;;20.00;17.85;;;13.70;97.60;;;;;;5073052;28;20029;-77
2022/06/01 01:22:31;;;;;;;19.17;17.27;;;13.60;97.60;;;;;;5073242;28;20035;-77
2022/06/01 01:25:28;;;;;;;19.48;17.48;;;13.50;97.70;;;;;;5073051;28;20045;-77
2022/06/01 01:27:57;;;;;;;21.67;19.13;;;13.50;98.00;;;;;;5073226;28;20025;-77
2022/06/01 01:30:38;;;;;;;21.63;19.42;;;13.60;98.10;;;;;;5072829;28;20064;-77
2022/06/01 01:33:14;;;;;;;20.52;18.52;;;13.50;98.20;;;;;;5073235;28;20108;-77
2022/06/01 01:35:47;;;;;;;19.15;17.15;;;13.50;98.40;;;;;;5073066;28;20074;-77
2022/06/01 01:38:34;;;;;;;18.02;15.82;;;13.50;98.40;;;;;;5075130;28;20024;-77
2022/06/01 01:41:09;;;;;;;16.17;14.68;;;13.50;98.40;;;;;;5076966;28;20032;-78
2022/06/01 01:43:42;;;;;;;18.13;16.27;;;13.50;98.30;;;;;;5077185;28;20079;-77
2022/06/01 01:46:08;;;;;;;17.85;16.13;;;13.50;98.30;;;;;;5076850;28;20391;-78
2022/06/01 01:48:36;;;;;;;16.27;14.68;;;13.60;98.30;;;;;;5076577;28;20024;-78
2022/06/01 01:51:02;;;;;;;15.38;13.88;;;13.60;98.10;;;;;;5076868;28;20025;-77
2022/06/01 01:53:29;;;;;;;15.77;14.07;;;13.70;98.10;;;;;;5076687;28;20086;-77
2022/06/01 01:56:03;;;;;;;16.13;14.52;;;13.80;98.00;;;;;;5076462;28;20081;-77
2022/06/01 01:58:47;;;;;;;16.23;14.63;;;13.90;97.90;;;;;;5076423;28;20025;-78
2022/06/01 02:01:19;;;;;;;14.23;12.82;;;13.90;97.80;;;;;;5076456;28;20060;-77
2022/06/01 02:03:57;;;;;;;14.63;13.15;;;13.90;97.80;;;;;;5076718;28;20021;-77
2022/06/01 02:06:37;;;;;;;16.58;14.98;;;14.00;97.70;;;;;;5076460;28;20036;-77
2022/06/01 02:09:13;;;;;;;15.07;13.65;;;14.10;97.70;;;;;;5076236;28;20503;-77
2022/06/01 02:14:45;;;;;;;;;;;14.20;97.70;;;;;;5068247;28;20037;-77
2022/06/01 02:17:37;;;;;;;15.10;13.60;;;14.20;97.60;;;;;;5076024;28;19909;-78
2022/06/01 02:20:10;;;;;;;16.77;14.50;;;14.30;97.30;;;;;;5076047;28;20036;-77
2022/06/01 02:22:39;;;;;;;14.85;13.45;;;14.30;97.10;;;;;;5076522;28;20024;-77
2022/06/01 02:25:09;;;;;;;14.13;12.82;;;14.20;97.20;;;;;;5075961;28;20071;-77
2022/06/01 02:27:35;;;;;;;14.68;13.02;;;14.20;97.30;;;;;;5075466;28;20029;-77
2022/06/01 02:30:18;;;;;;;13.10;11.77;;;14.20;97.30;;;;;;5075846;28;20033;-77
2022/06/01 02:32:46;;;;;;;;;;;14.20;97.40;;;;;;5076332;28;20025;-77
2022/06/01 02:35:14;;;;;;;10.27;9.35;;;14.30;97.40;;;;;;5075715;28;20347;-77
2022/06/01 02:37:44;;;;;;;9.88;8.02;;;14.30;97.30;;;;;;5075841;28;20025;-78
2022/06/01 02:40:13;;;;;;;7.07;6.47;;;14.30;97.10;;;;;;5075920;28;20033;-77
2022/06/01 02:42:50;;;;;;;7.90;6.70;;;14.20;96.90;;;;;;5075962;28;20031;-77
2022/06/01 02:45:21;;;;;;;7.80;7.00;;;14.30;96.90;;;;;;5075557;28;20024;-77
2022/06/01 02:47:48;;;;;;;7.53;6.40;;;14.30;96.80;;;;;;5075541;28;20048;-77
2022/06/01 02:50:17;;;;;;;7.57;6.20;;;14.40;96.80;;;;;;5074510;28;20391;-77
2022/06/01 02:52:44;;;;;;;6.15;5.55;;;14.40;96.80;;;;;;5075613;28;20020;-77
2022/06/01 02:55:11;;;;;;;7.25;5.68;;;14.40;96.80;;;;;;5075649;28;20024;-77
2022/06/01 02:57:38;;;;;;;6.20;5.57;;;14.40;96.70;;;;;;5075192;28;20025;-77
2022/06/01 03:00:07;;;;;;;5.65;5.15;;;14.50;96.90;;;;;;5075422;28;20385;-77
2022/06/01 03:02:38;;;;;;;6.50;5.90;;;14.50;96.40;;;;;;5075338;28;20048;-78
2022/06/01 03:05:04;;;;;;;6.70;6.10;;;14.50;96.30;;;;;;5075276;28;20107;-78
2022/06/01 03:07:30;;;;;;;5.65;5.18;;;14.40;96.40;;;;;;5075200;28;20040;-77
2022/06/01 03:09:55;;;;;;;6.22;4.88;;;14.40;96.50;;;;;;5075093;28;20090;-77
2022/06/01 03:12:22;;;;;;;5.32;4.82;;;14.40;96.50;;;;;;5075234;28;20020;-77
2022/06/01 03:14:47;;;;;;;5.35;4.85;;;14.40;96.30;;;;;;5075255;28;20025;-77
2022/06/01 03:17:13;;;;;;;5.40;5.00;;;14.40;96.20;;;;;;5075015;28;20529;-78
2022/06/01 03:19:39;;;;;;;5.90;5.40;;;14.30;96.10;;;;;;5074925;28;20194;-77
2022/06/01 03:22:04;;;;;;;5.57;5.10;;;14.20;96.10;;;;;;5075148;28;20082;-77
2022/06/01 03:24:30;;;;;;;6.15;5.60;;;14.20;96.20;;;;;;5074860;28;20036;-77
2022/06/01 03:26:56;;;;;;;6.38;5.63;;;14.20;96.30;;;;;;5075074;28;20104;-77
2022/06/01 03:29:24;;;;;;;7.88;7.10;;;14.20;96.40;;;;;;5074876;28;20491;-77
2022/06/01 03:31:51;;;;;;;6.95;6.30;;;14.10;96.50;;;;;;5074666;28;20107;-77
2022/06/01 03:34:17;;;;;;;8.27;6.60;;;14.10;96.50;;;;;;5074922;28;20036;-77
2022/06/01 03:36:43;;;;;;;8.73;6.70;;;14.10;96.70;;;;;;5074884;28;20021;-77
2022/06/01 03:39:09;;;;;;;8.90;7.30;;;14.10;96.80;;;;;;5074254;28;20020;-77
2022/06/01 03:41:34;;;;;;;8.27;6.50;;;14.10;96.90;;;;;;5074485;28;20033;-77
2022/06/01 03:46:44;;;;;;;6.88;6.28;;;14.10;96.90;;;;;;5074224;28;20189;-77
2022/06/01 03:49:10;;;;;;;7.10;6.40;;;14.10;96.90;;;;;;5074067;28;20119;-77
2022/06/01 03:51:36;;;;;;;8.60;7.47;;;14.10;96.80;;;;;;5074542;28;20061;-77
2022/06/01 03:54:02;;;;;;;7.80;7.10;;;14.10;96.70;;;;;;5074584;28;20032;-77
2022/06/01 03:56:28;;;;;;;7.88;7.05;;;14.00;96.70;;;;;;5074297;28;20031;-77
2022/06/01 03:58:53;;;;;;;8.75;7.90;;;13.90;96.70;;;;;;5074261;28;20489;-77
2022/06/01 04:01:19;;;;;;;7.63;6.80;;;13.90;96.80;;;;;;5073763;28;20104;-77
2022/06/01 04:03:46;;;;;;;7.78;6.97;;;13.80;96.80;;;;;;5074213;28;20025;-77
2022/06/01 04:06:12;;;;;;;7.78;7.07;;;13.80;96.90;;;;;;5074335;28;20029;-77
2022/06/01 04:08:37;;;;;;;7.43;6.68;;;13.80;97.00;;;;;;5074039;28;20047;-77
2022/06/01 04:11:03;;;;;;;7.32;6.57;;;13.80;97.10;;;;;;5074052;28;20037;-77
2022/06/01 04:13:29;;;;;;;7.80;7.10;;;13.80;97.10;;;;;;5073871;28;20103;-77
2022/06/01 04:15:55;;;;;;;7.30;6.65;;;13.70;97.20;;;;;;5073791;28;20028;-77
2022/06/01 04:18:21;;;;;;;7.72;6.97;;;13.70;97.10;;;;;;5074025;28;20026;-77
2022/06/01 04:20:50;;;;;;;8.60;7.18;;;13.80;97.20;;;;;;5074027;28;20448;-77
2022/06/01 04:23:16;;;;;;;8.23;7.50;;;13.80;97.10;;;;;;5073559;28;20427;-77
2022/06/01 04:25:42;;;;;;;8.07;7.28;;;13.90;97.10;;;;;;5073923;28;20016;-77
2022/06/01 04:28:08;;;;;;;9.15;8.20;;;13.90;97.10;;;;;;5073678;28;20112;-77
2022/06/01 04:30:33;;;;;;;8.02;7.28;;;13.90;97.00;;;;;;5073532;28;20082;-77
2022/06/01 04:33:00;;;;;;;9.32;8.43;;;14.00;97.10;;;;;;5073523;28;20028;-77
2022/06/01 04:35:26;;;;;;;9.95;8.35;;;14.00;97.10;;;;;;5073863;28;20025;-77
2022/06/01 04:37:52;;;;;;;11.07;9.98;;;14.00;97.10;;;;;;5073828;28;20021;-77
2022/06/01 04:40:21;;;;;;;12.05;10.75;;;14.00;97.10;;;;;;5073363;28;20024;-77
2022/06/01 04:42:47;;;;;;;11.43;10.27;;;13.90;97.10;;;;;;5073193;28;20456;-77
2022/06/01 04:45:14;;;;;;;12.85;11.60;;;14.00;97.20;;;;;;5073319;28;20028;-77
2022/06/01 04:47:40;;;;;;;13.68;12.30;;;14.00;97.30;;;;;;5073290;28;20053;-77
2022/06/01 04:50:07;;;;;;;16.88;15.13;;;14.00;97.40;;;;;;5073316;28;20117;-77
2022/06/01 04:52:32;;;;;;;17.95;16.13;;;14.00;97.40;;;;;;5073528;28;20021;-77
2022/06/01 04:54:58;;;;;;;18.17;16.27;;;13.90;97.50;;;;;;5073403;28;20353;-77
2022/06/01 04:57:24;;;;;;;19.65;17.48;;;13.80;97.60;;;;;;5073371;28;20365;-77
2022/06/01 04:59:50;;;;;;;17.85;15.88;;;13.80;97.70;;;;;;5073134;28;20475;-77
2022/06/01 05:02:16;;;;;;;18.88;16.98;;;13.80;97.80;;;;;;5073434;28;20017;-77
2022/06/01 05:04:42;;;;;;;18.67;16.73;;;13.80;98.00;;;;;;5073159;28;20431;-77
2022/06/01 05:07:08;;;;;;;19.98;17.20;;;13.80;98.00;;;;;;5072899;28;20020;-77
2022/06/01 05:09:33;;;;;;;20.63;18.42;;;13.90;98.20;;;;;;5073015;28;20036;-77
2022/06/01 05:11:59;;;;;;;20.13;18.17;;;13.90;98.30;;;;;;5072839;28;20020;-77
2022/06/01 05:14:25;;;;;;;20.90;18.45;;;13.90;98.10;;;;;;5073006;28;20024;-77
2022/06/01 05:16:55;;;;;;;19.63;17.50;;;13.80;97.90;;;;;;5072925;28;20024;-77
2022/06/01 05:19:21;;;;;;;20.67;18.50;;;13.80;98.10;;;;;;5073270;28;20033;-77
2022/06/01 05:21:46;;;;;;;20.63;17.08;;;13.80;98.20;;;;;;5072768;28;20574;-77
2022/06/01 05:24:12;;;;;;;20.77;18.67;;;13.80;98.20;;;;;;5072957;28;20028;-77
2022/06/01 05:26:38;;;;;;;20.35;18.10;;;13.80;98.30;;;;;;5073175;28;20012;-77
2022/06/01 05:29:03;;;;;;;22.35;19.95;;;13.70;98.20;;;;;;5072788;28;20117;-77
2022/06/01 05:31:29;;;;;;;21.58;19.27;;;13.70;98.40;;;;;;5072933;28;20078;-77
2022/06/01 05:33:55;;;;;;;21.73;19.33;;;13.60;98.60;;;;;;5073083;28;20460;-77
2022/06/01 05:36:20;;;;;;;21.38;18.77;;;13.60;98.70;;;;;;5072601;28;20373;-77
2022/06/01 05:38:46;;;;;;;21.65;19.23;;;13.60;98.70;;;;;;5072922;28;20016;-77
2022/06/01 05:41:12;;;;;;;23.02;19.27;;;13.60;98.80;;;;;;5072663;28;20383;-77
2022/06/01 05:43:38;;;;;;;21.45;17.90;;;13.60;98.90;;;;;;5072699;28;20021;-77
2022/06/01 05:46:04;;;;;;;20.60;18.08;;;13.60;99.00;;;;;;5072411;28;20499;-77
2022/06/01 05:48:31;;;;;;;20.60;18.38;;;13.50;99.00;;;;;;5072501;28;20040;-77
2022/06/01 05:50:57;;;;;;;19.98;17.88;;;13.50;99.00;;;;;;5072759;28;20099;-77
2022/06/01 05:53:23;;;;;;;20.25;17.88;;;13.60;99.10;;;;;;5072781;28;20081;-77
2022/06/01 05:55:49;;;;;;;19.77;17.27;;;13.70;99.10;;;;;;5072328;28;20115;-77
2022/06/01 05:58:18;;;;;;;20.42;18.02;;;13.70;99.00;;;;;;5072491;28;20036;-77
2022/06/01 06:00:46;;;;;;;19.50;17.30;;;13.70;99.00;;;;;;5072422;28;20025;-77
2022/06/01 06:03:12;;;;;;;22.75;17.20;;;13.80;99.10;;;;;;5072625;28;20378;-77
2022/06/01 06:08:23;;;;;;;16.23;14.57;;;13.80;99.00;;;;;;5072305;28;20059;-77
2022/06/01 06:10:49;;;;;;;16.17;14.48;;;13.90;99.00;;;;;;5072451;28;20187;-77
2022/06/01 06:13:15;;;;;;;19.65;14.63;;;13.90;99.00;;;;;;5072125;28;20524;-77
2022/06/01 06:15:41;;;;;;;17.27;13.82;;;13.90;99.00;;;;;;5072184;28;20033;-77
2022/06/01 06:18:07;;;;;;;13.40;11.50;;;14.00;99.00;;;;;;5072199;28;20024;-77
2022/06/01 06:20:33;;;;;;;13.98;10.13;;;14.10;98.80;;;;;;5072600;28;20380;-77
2022/06/01 06:22:59;;;;;;;14.60;10.02;;;14.20;98.20;;;;;;5072047;28;20029;-77
2022/06/01 06:25:25;;;;;;;10.52;9.52;;;14.30;98.30;;;;;;5074497;28;20020;-77
2022/06/01 06:27:51;;;;;;;11.65;8.45;;;14.40;98.30;;;;;;5076197;28;20089;-77
2022/06/01 06:30:18;;;;;;;10.70;9.30;;;14.50;97.90;;;;;;5076096;28;20036;-77
2022/06/01 06:32:44;;;;;;;9.13;8.00;;;14.60;97.50;;;;;;5075704;28;20031;-77
2022/06/01 06:35:10;;;;;;;10.75;9.13;;;14.70;97.40;;;;;;5075710;28;20490;-77
2022/06/01 06:37:36;;;;;;;11.57;8.98;;;14.80;97.40;;;;;;5075656;28;20025;-77
2022/06/01 06:40:02;;;;;;;11.07;8.80;;;14.90;97.30;;;;;;5075491;28;20021;-77
2022/06/01 06:42:28;;;;;;;13.50;8.55;;;14.90;96.80;;;;;;5075505;28;20438;-77
2022/06/01 06:44:56;;;;;;;10.27;9.15;;;15.00;96.50;;;;;;5075611;28;20016;-77
2022/06/01 06:47:25;;;;;;;10.88;8.38;;;15.00;96.50;;;;;;5075397;28;20044;-77
2022/06/01 06:49:50;;;;;;;10.77;9.30;;;15.00;96.60;;;;;;5075332;28;20036;-77
2022/06/01 06:52:16;;;;;;;9.20;8.05;;;15.10;96.90;;;;;;5075376;28;20456;-76
2022/06/01 06:54:41;;;;;;;9.23;7.72;;;15.20;96.80;;;;;;5075191;28;20047;-76
2022/06/01 06:57:07;;;;;;;9.48;8.45;;;15.30;96.70;;;;;;5075625;28;20021;-76
2022/06/01 06:59:33;;;;;;;10.65;8.43;;;15.40;96.00;;;;;;5075247;28;20076;-76
2022/06/01 07:01:59;;;;;;;10.77;7.93;;;15.40;96.30;;;;;;5075212;28;20111;-76
2022/06/01 07:04:25;;;;;;;7.93;7.13;;;15.40;95.60;;;;;;5074910;28;20025;-76
2022/06/01 07:06:50;;;;;;;10.63;7.03;;;15.40;95.60;;;;;;5075144;28;20031;-76
2022/06/01 07:09:16;;;;;;;7.55;6.75;;;15.40;95.40;;;;;;5075074;28;20120;-76
2022/06/01 07:11:42;;;;;;;8.05;6.05;;;15.40;95.30;;;;;;5075132;28;20024;-77
2022/06/01 07:14:07;;;;;;;9.07;6.75;;;15.40;95.50;;;;;;5075146;28;20070;-77
2022/06/01 07:16:35;;;;;;;8.23;6.20;;;15.30;95.30;;;;;;5074868;28;20079;-77
2022/06/01 07:19:02;;;;;;;8.95;6.15;;;15.30;95.40;;;;;;5074952;28;20130;-77
2022/06/01 07:21:29;;;;;;;9.32;5.97;;;15.40;95.80;;;;;;5074790;28;20020;-76
2022/06/01 07:23:55;;;;;;;7.07;5.10;;;15.40;95.80;;;;;;5075104;28;20056;-77
2022/06/01 07:26:31;;;;;;;7.75;4.68;;;15.30;95.50;;;;;;5074812;28;20036;-77
2022/06/01 07:28:56;;;;;;;10.75;5.13;;;15.30;95.20;;;;;;5074552;28;20094;-76
2022/06/01 07:31:22;;;;;;;7.15;4.57;;;15.20;95.20;;;;;;5074885;28;20415;-77
2022/06/01 07:33:48;;;;;;;6.00;3.72;;;15.20;95.20;;;;;;5074467;28;20511;-76
2022/06/01 07:36:16;;;;;;;4.97;3.88;;;15.30;95.40;;;;;;5074261;28;20028;-77
2022/06/01 07:44:27;;;;;;;4.70;3.30;;;15.40;94.80;;;;;;5074044;28;20102;-77
2022/06/01 07:46:53;;;;;;;4.72;3.90;;;15.60;95.10;;;;;;5073264;28;20404;-77
2022/06/01 07:49:19;;;;;;;5.75;4.20;;;15.60;94.30;;;;;;5073612;28;20449;-77
2022/06/01 07:51:45;;;;;;;5.13;3.83;;;15.60;94.40;;;;;;5073140;28;20108;-77
2022/06/01 07:54:11;;;;;;;7.97;4.65;;;15.70;94.70;;;;;;5073307;28;20032;-77
2022/06/01 07:56:37;;;;;;;5.63;3.78;;;15.80;94.30;;;;;;5073884;28;20024;-77
2022/06/01 07:59:05;;;;;;;5.43;3.75;;;15.70;94.20;;;;;;5074022;28;20028;-77
2022/06/01 08:01:31;;;;;;;5.80;3.60;;;15.80;94.20;;;;;;5074195;28;20323;-77
2022/06/01 08:03:59;;;;;;;5.45;3.25;;;15.80;93.80;;;;;;5073775;28;20433;-78
2022/06/01 08:06:29;;;;;;;4.53;3.00;;;15.80;93.00;;;;;;5073743;28;20101;-77
2022/06/01 08:08:55;;;;;;;4.47;2.85;;;15.90;92.50;;;;;;5073699;28;20032;-77
2022/06/01 08:13:06;;;;;;;3.30;2.70;;;16.00;92.10;;;;;;5073488;28;20460;-77
2022/06/01 08:14:10;;;;;;;2.60;2.40;;;15.90;91.90;;;;;;5073546;28;20020;-77
2022/06/01 08:16:38;;;;;;;5.78;3.63;;;16.00;92.30;;;;;;5073456;28;20056;-77
2022/06/01 08:19:04;;;;;;;5.35;3.85;;;15.90;92.60;;;;;;5073972;28;20033;-77
2022/06/01 08:21:30;;;;;;;6.40;3.80;;;15.80;92.90;;;;;;5073986;28;20124;-77
2022/06/01 08:23:56;;;;;;;4.00;3.63;;;15.70;93.30;;;;;;5073518;28;20021;-77
2022/06/01 08:26:21;;;;;;;7.63;3.70;;;15.90;93.90;;;;;;5073778;28;20037;-77
2022/06/01 08:28:47;;;;;;;5.70;3.50;;;16.10;94.00;;;;;;5073430;28;20082;-77
2022/06/01 08:31:15;;;;;;;3.55;2.58;;;16.30;92.40;;;;;;5073817;28;20025;-77
2022/06/01 08:33:41;;;;;;;6.00;2.40;;;16.40;91.20;;;;;;5073416;28;20024;-77
2022/06/01 08:36:06;;;;;;;5.22;2.50;;;16.50;91.50;;;;;;5073894;28;20090;-77
2022/06/01 08:38:33;;;;;;;3.90;2.85;;;16.60;91.40;;;;;;5073415;28;20426;-77
2022/06/01 08:41:05;;;;;;;4.15;2.85;;;16.80;91.00;;;;;;5073245;28;20099;-77
2022/06/01 08:43:39;;;;;;;3.15;2.65;;;17.00;90.80;;;;;;5073497;28;20365;-77
2022/06/01 08:46:04;;;;;;;3.67;2.60;;;17.00;90.20;;;;;;5073348;28;20472;-78
2022/06/01 08:48:39;;;;;;;4.07;2.13;;;17.00;90.20;;;;;;5072587;28;20039;-77
2022/06/01 08:51:05;;;;;;;3.10;2.20;;;17.10;90.50;;;;;;5073083;28;20036;-77
2022/06/01 08:53:30;;;;;;;3.78;2.03;;;17.30;90.20;;;;;;5072822;28;20077;-78
2022/06/01 08:56:11;;;;;;;2.35;1.90;;;17.40;87.30;;;;;;5073392;28;20115;-77
2022/06/01 08:58:50;;;;;;;2.67;1.63;;;17.30;86.40;;;;;;5073448;28;20024;-78
2022/06/01 09:01:37;;;;;;;2.67;2.08;;;17.20;86.70;;;;;;5073012;28;20052;-77
2022/06/01 09:04:35;;;;;;;3.10;2.00;;;17.20;87.50;;;;;;5073033;28;20047;-77
2022/06/01 09:07:28;;;;;;;5.88;2.20;;;17.30;85.90;;;;;;5072841;28;20077;-78
2022/06/01 09:10:03;;;;;;;2.28;1.63;;;17.50;85.60;;;;;;5072727;28;20039;-78
2022/06/01 09:12:30;;;;;;;5.13;1.63;;;17.50;85.40;;;;;;5073195;28;20029;-77
2022/06/01 09:14:57;;;;;;;4.43;1.85;;;17.70;85.10;;;;;;5073143;28;20031;-77
2022/06/01 09:17:24;;;;;;;4.93;1.50;;;17.80;83.90;;;;;;5073311;28;20035;-78
2022/06/01 09:22:38;;;;;;;2.70;1.80;;;18.00;83.40;;;;;;5073287;28;20130;-78
2022/06/01 09:25:14;;;;;;;2.88;1.65;;;17.90;82.70;;;;;;5072920;28;20047;-78
2022/06/01 09:27:45;;;;;;;2.03;1.58;;;17.90;82.20;;;;;;5073112;28;20023;-78
2022/06/01 09:30:39;;;;;;;2.95;1.90;;;17.80;82.90;;;;;;5072634;28;20036;-77
2022/06/01 09:33:21;;;;;;;3.45;1.92;;;17.50;82.60;;;;;;5072632;28;20097;-77
2022/06/01 09:36:07;;;;;;;2.25;2.00;;;17.40;84.00;;;;;;5072963;28;20052;-77
2022/06/01 09:38:48;;;;;;;2.78;1.70;;;17.20;83.40;;;;;;5072595;28;20037;-77
2022/06/01 09:41:19;;;;;;;5.45;1.70;;;17.30;84.40;;;;;;5072573;28;20043;-77
2022/06/01 09:43:50;;;;;;;4.47;2.10;;;17.40;83.90;;;;;;5072996;28;20392;-77
2022/06/01 09:46:35;;;;;;;2.28;1.98;;;17.70;85.00;;;;;;5072273;28;20021;-77
2022/06/01 09:49:09;;;;;;;6.15;2.47;;;17.90;84.30;;;;;;5072603;28;20089;-77
2022/06/01 09:51:38;;;;;;;3.38;1.77;;;18.10;83.80;;;;;;5072561;28;20486;-77
2022/06/01 09:54:29;;;;;;;3.75;2.38;;;18.10;82.40;;;;;;5072906;28;20202;-77
2022/06/01 09:56:55;;;;;;;6.68;2.67;;;18.00;80.70;;;;;;5072857;28;20471;-77
2022/06/01 10:08:11;;;;;;;1.45;0.85;;;17.10;82.70;;;;;;5076203;28;20024;-78
2022/06/01 10:10:37;;;;;;;2.67;0.90;;;16.90;83.70;;;;;;5076387;28;20567;-78
2022/06/01 10:13:04;;;;;;;2.88;0.68;;;17.10;83.30;;;;;;5076259;28;20471;-77
2022/06/01 10:15:33;;;;;;;1.08;0.40;;;17.10;80.80;;;;;;5076154;28;20129;-77
2022/06/01 10:18:05;;;;;;;1.38;0.40;;;17.20;80.60;;;;;;5076007;28;20107;-77
2022/06/01 10:20:37;;;;;;;2.83;0.63;;;17.40;80.80;;;;;;5075900;28;20038;-77
2022/06/01 10:23:21;;;;;;;1.73;0.70;;;17.60;82.00;;;;;;5076399;28;20263;-77
2022/06/01 10:25:57;;;;;;;1.83;1.30;;;17.80;81.00;;;;;;5076046;28;20035;-77
2022/06/01 10:28:31;;;;;;;1.35;1.10;;;18.00;80.30;;;;;;5075785;28;20475;-78
2022/06/01 10:31:00;;;;;;;2.10;1.20;;;18.30;78.50;;;;;;5075704;28;20437;-78
2022/06/01 10:33:39;;;;;;;2.00;1.20;;;18.50;77.70;;;;;;5075713;28;20111;-78
2022/06/01 10:36:12;;;;;;;2.65;1.17;;;18.60;76.40;;;;;;5075747;28;20372;-78
2022/06/01 10:38:48;;;;;;;1.45;0.90;;;18.80;74.60;;;;;;5075778;28;20052;-78
2022/06/01 10:41:27;;;;;;;1.65;0.85;;;18.90;72.80;;;;;;5075457;28;20029;-77
2022/06/01 10:44:16;;;;;;;3.08;0.82;;;18.90;71.80;;;;;;5075761;28;20032;-78
2022/06/01 10:47:14;;;;;;;2.92;0.70;;;19.00;71.60;;;;;;5075077;28;20500;-78
2022/06/01 10:49:56;;;;;;;2.08;0.82;;;19.10;70.30;;;;;;5074767;28;20435;-77
2022/06/01 10:52:33;;;;;;;2.67;1.00;;;18.90;70.90;;;;;;5075717;28;20024;-78
2022/06/01 10:55:08;;;;;;;1.35;1.08;;;18.70;72.10;;;;;;5075654;28;20099;-78
2022/06/01 10:57:37;;;;;;;2.17;1.13;;;18.40;73.40;;;;;;5075257;28;20078;-78
2022/06/01 11:00:05;;;;;;;3.03;1.80;;;18.10;75.40;;;;;;5075319;28;20437;-78
2022/06/01 11:02:49;;;;;;;3.15;1.67;;;17.90;78.20;;;;;;5074945;28;20063;-77
2022/06/01 11:05:35;;;;;;;3.58;1.80;;;17.50;79.60;;;;;;5075438;28;20391;-77
2022/06/01 11:08:28;;;;;;;2.80;1.55;;;17.30;81.20;;;;;;5075226;28;20056;-77
2022/06/01 11:11:18;;;;;;;2.25;1.67;;;17.20;82.20;;;;;;5074518;28;20036;-77
2022/06/01 11:13:43;;;;;;;2.95;1.50;;;17.10;82.10;;;;;;5069484;28;20031;-77
2022/06/01 11:16:49;;;;;;;2.13;1.02;;;17.10;82.30;;;;;;5075177;28;20025;-77
2022/06/01 11:19:41;;;;;;;2.17;0.52;;;17.40;83.80;;;;;;5074720;28;20024;-77
2022/06/01 11:22:22;;;;;;;1.33;0.60;;;17.70;82.30;;;;;;5058814;28;20043;-77
2022/06/01 11:25:05;;;;;;;0.55;0.20;;;17.70;79.60;;;;;;5074717;28;20025;-77
2022/06/01 11:27:43;;;;;;;3.33;0.10;;;17.60;77.60;;;;;;5074771;28;20024;-77
2022/06/01 11:30:16;;;;;;;0.40;0.10;;;17.50;75.80;;;;;;5074989;28;20388;-77
2022/06/01 11:32:48;;;;;;;1.70;0.20;;;17.30;74.10;;;;;;5074584;28;20048;-77
2022/06/01 11:35:31;;;;;;;1.58;0.30;;;17.30;75.30;;;;;;5074614;28;20035;-77
2022/06/01 11:38:05;;;;;;;1.17;0.52;;;17.30;76.80;;;;;;5074474;28;20020;-77
2022/06/01 11:40:43;;;;;;;1.77;0.82;;;17.30;77.60;;;;;;5074615;28;20036;-77
2022/06/01 11:43:33;;;;;;;2.28;0.80;;;17.40;78.20;;;;;;5074768;28;20021;-77
2022/06/01 11:46:10;;;;;;;2.08;1.10;;;17.30;79.40;;;;;;5073450;28;20079;-77
2022/06/01 11:48:38;;;;;;;1.88;1.25;;;17.20;80.60;;;;;;5074208;28;20044;-77
2022/06/01 11:51:12;;;;;;;2.70;1.05;;;17.30;82.00;;;;;;5073921;28;20040;-77
2022/06/01 11:54:01;;;;;;;1.63;1.25;;;17.60;82.50;;;;;;5074090;28;20095;-77
2022/06/01 11:56:34;;;;;;;2.45;2.25;;;17.90;82.60;;;;;;5073389;28;20452;-76
2022/06/01 11:59:05;;;;;;;3.97;2.15;;;18.20;82.50;;;;;;5073777;28;20055;-77
2022/06/01 12:01:34;;;;;;;4.53;2.65;;;18.30;83.00;;;;;;5073261;28;20028;-77
2022/06/01 12:04:30;;;;;;;4.40;2.60;;;18.40;84.00;;;;;;5073372;28;20044;-77
2022/06/01 12:07:16;;;;;;;4.00;2.45;;;18.50;84.10;;;;;;5073595;28;20026;-77
2022/06/01 12:09:49;;;;;;;2.45;2.10;;;18.50;83.50;;;;;;5072801;28;20040;-77
2022/06/01 12:12:26;;;;;;;;;;;18.50;83.10;;;;;;5074378;28;20031;-77
2022/06/01 12:14:58;;;;;;;3.38;2.22;;;18.40;83.00;;;;;;5073418;28;19987;-77
2022/06/01 12:17:28;;;;;;;5.30;2.90;;;18.20;83.70;;;;;;5073688;28;20048;-77
2022/06/01 12:20:14;;;;;;;4.32;2.60;;;18.20;85.90;;;;;;5073875;28;20029;-77
2022/06/01 12:29:07;;;;;;;2.40;1.00;;;18.40;83.90;;;;;;5073765;28;20036;-78
2022/06/01 12:31:53;;;;;;;3.03;0.40;;;18.60;80.50;;;;;;5073610;28;20399;-78
2022/06/01 12:34:32;;;;;;;0.82;0.20;;;18.80;75.10;;;;;;5066211;28;20025;-77
2022/06/01 12:37:25;;;;;;;2.63;0.57;;;18.80;71.70;;;;;;5073389;28;20099;-78
2022/06/01 12:39:59;;;;;;;1.75;0.30;;;18.80;71.80;;;;;;5073903;28;20075;-77
2022/06/01 12:42:30;;;;;;;2.10;0.38;;;18.90;72.10;;;;;;5073095;28;20089;-77
2022/06/01 12:44:59;;;;;;;0.43;0.10;;;18.90;66.90;;;;;;5073143;28;20388;-78
2022/06/01 12:47:36;;;;;;;0.52;0.10;;;18.80;66.90;;;;;;5072989;28;20500;-78
2022/06/01 12:50:16;;;;;;;0.50;0.10;;;18.90;69.00;;;;;;5073348;28;20052;-77
2022/06/01 12:52:42;;;;;;;0.32;0.10;;;19.10;62.00;;;;;;5073151;28;20107;-78
2022/06/01 12:55:24;;;;;;;2.58;0.10;;;19.20;60.00;;;;;;5073368;28;20039;-77
2022/06/01 12:57:56;;;;;;;0.30;0.10;;;19.20;60.00;;;;;;5073154;28;20031;-77
2022/06/01 13:00:29;;;;;;;0.45;0.08;;;19.20;59.50;;;;;;5073375;28;20035;-77
2022/06/01 13:02:55;;;;;;;1.55;0.28;;;19.20;60.50;;;;;;5073343;28;20025;-77
2022/06/01 13:05:22;;;;;;;1.95;0.17;;;19.10;62.50;;;;;;5072754;28;20031;-77
2022/06/01 13:07:52;;;;;;;0.73;0.20;;;19.10;62.60;;;;;;5072985;28;20024;-78
2022/06/01 13:10:22;;;;;;;0.68;0.10;;;19.10;62.80;;;;;;5072664;28;20408;-78
2022/06/01 13:12:47;;;;;;;0.52;0.20;;;19.10;63.00;;;;;;5072728;28;20044;-78
2022/06/01 13:15:22;;;;;;;0.40;0.13;;;19.10;62.20;;;;;;5072967;28;20028;-78
2022/06/01 13:17:56;;;;;;;0.50;0.20;;;19.10;61.10;;;;;;5072989;28;20354;-77
2022/06/01 13:20:26;;;;;;;2.38;0.10;;;19.10;60.90;;;;;;5072426;28;20033;-76
2022/06/01 13:22:53;;;;;;;0.40;0.10;;;19.20;61.40;;;;;;5071907;28;20021;-78
2022/06/01 13:25:26;;;;;;;0.47;0.22;;;19.30;62.50;;;;;;5071685;28;20494;-78
2022/06/01 13:27:53;;;;;;;0.73;0.20;;;19.30;62.40;;;;;;5072113;28;20499;-78
2022/06/01 13:30:19;;;;;;;1.75;0.28;;;19.20;62.90;;;;;;5072397;28;20139;-77